M I D A S
Marine Information and Data Acquisition System
Tripno 1210 of the Zeeleeuw from 2007-01-31 12:43:33 to 2007-01-31 15:22:51
Back to CruiseResearch ActivitiesStationsMapUnderway DataData graphs

EquipmentUnitsComment
TimeDGPSUTC
LatitudeDGPSDM.mWGS84
LongitudeDGPSDM.mWGS84
HeadingGyrodeg 
SOGDGPSknotsSpeed over ground
COGDGPSdegCourse over ground
DepthEcho soundermeters200 kHz
Missing or incorrect values are displayed as -999
Navigation data collected by the RV Zeeleeuw from 2007-01-31 07:54:49 to 2007-01-31 15:30:39
                                                                                    Next 1000 lines
Time Latitude Longitude Heading SOG COG Depth
2007-01-31 07:54:59 51°13.599 2°56.094 127 -999 305 -999
2007-01-31 07:55:04 51°13.599 2°56.094 127 0.1 138 -999
2007-01-31 07:55:09 51°13.598 2°56.094 127.1 0.2 118 -999
2007-01-31 07:55:14 51°13.598 2°56.095 127.9 0.2 144 -999
2007-01-31 07:55:19 51°13.598 2°56.095 128.5 0.1 167 -999
2007-01-31 07:55:24 51°13.598 2°56.095 128.8 -999 345 -999
2007-01-31 07:55:29 51°13.598 2°56.094 128.8 0.1 274 -999
2007-01-31 07:55:34 51°13.599 2°56.094 128.4 -999 308 -999
2007-01-31 07:55:39 51°13.599 2°56.094 128.4 -999 309 -999
2007-01-31 07:55:44 51°13.599 2°56.094 128.4 -999 245 -999
2007-01-31 07:55:49 51°13.599 2°56.094 128.3 -999 23 -999
2007-01-31 07:55:54 51°13.599 2°56.094 128.2 -999 186 -999
2007-01-31 07:55:59 51°13.599 2°56.094 128.2 -999 350 -999
2007-01-31 07:56:04 51°13.599 2°56.094 128.2 -999 292 -999
2007-01-31 07:56:09 51°13.599 2°56.094 128.2 -999 310 -999
2007-01-31 07:56:14 51°13.599 2°56.094 128.3 -999 151 -999
2007-01-31 07:56:19 51°13.599 2°56.094 128.3 0.1 127 -999
2007-01-31 07:56:24 51°13.599 2°56.094 128.3 0.1 150 -999
2007-01-31 07:56:29 51°13.599 2°56.094 128.4 0.1 154 -999
2007-01-31 07:56:34 51°13.599 2°56.094 128.5 -999 151 -999
2007-01-31 07:56:38 51°13.599 2°56.094 128.5 -999 329 -999
2007-01-31 07:56:43 51°13.598 2°56.094 128.5 -999 322 -999
2007-01-31 07:56:49 51°13.598 2°56.094 128.5 -999 200 -999
2007-01-31 07:56:54 51°13.598 2°56.094 128.4 -999 85 -999
2007-01-31 07:56:59 51°13.598 2°56.094 128.4 -999 199 -999
2007-01-31 07:57:04 51°13.598 2°56.094 128.4 -999 155 -999
2007-01-31 07:57:09 51°13.598 2°56.094 128.4 0.1 154 -999
2007-01-31 07:57:14 51°13.598 2°56.094 128.4 -999 254 -999
2007-01-31 07:57:19 51°13.598 2°56.094 128.4 0.1 283 -999
2007-01-31 07:57:24 51°13.598 2°56.094 128.4 0.1 280 -999
2007-01-31 07:57:29 51°13.598 2°56.094 128.4 0.1 311 -999
2007-01-31 07:57:34 51°13.599 2°56.094 128 0.1 298 -999
2007-01-31 07:57:39 51°13.599 2°56.094 127.6 0.1 303 -999
2007-01-31 07:57:44 51°13.599 2°56.094 127 0.1 325 -999
2007-01-31 07:57:49 51°13.599 2°56.094 126.7 -999 271 -999
2007-01-31 07:57:54 51°13.599 2°56.094 126.7 -999 95 -999
2007-01-31 07:57:59 51°13.599 2°56.094 127 -999 139 -999
2007-01-31 07:58:04 51°13.599 2°56.094 127.1 0.1 110 -999
2007-01-31 07:58:09 51°13.599 2°56.094 127.4 0.1 138 -999
2007-01-31 07:58:14 51°13.599 2°56.094 127.6 0.1 142 -999
2007-01-31 07:58:19 51°13.599 2°56.094 127.6 -999 179 -999
2007-01-31 07:58:24 51°13.599 2°56.094 127.8 -999 172 -999
2007-01-31 07:58:29 51°13.599 2°56.094 128.2 0.1 198 -999
2007-01-31 07:58:34 51°13.599 2°56.094 128.2 -999 159 -999
2007-01-31 07:58:39 51°13.599 2°56.094 128.2 -999 324 -999
2007-01-31 07:58:44 51°13.599 2°56.094 128.2 -999 306 -999
2007-01-31 07:58:49 51°13.599 2°56.094 128.1 -999 309 -999
2007-01-31 07:58:54 51°13.599 2°56.093 127.7 0.1 311 -999
2007-01-31 07:58:59 51°13.599 2°56.093 127.3 -999 334 -999
2007-01-31 07:59:04 51°13.599 2°56.093 126.9 -999 106 -999
2007-01-31 07:59:09 51°13.599 2°56.093 127 0.1 132 -999
2007-01-31 07:59:14 51°13.599 2°56.093 127.2 0.1 160 -999
2007-01-31 07:59:19 51°13.599 2°56.094 127.7 0.1 127 -999
2007-01-31 07:59:24 51°13.599 2°56.094 128 0.1 104 -999
2007-01-31 07:59:29 51°13.599 2°56.094 128.2 0.1 112 -999
2007-01-31 07:59:34 51°13.599 2°56.094 128.2 0.1 71 -999
2007-01-31 07:59:39 51°13.599 2°56.094 128.2 0.1 235 -999
2007-01-31 07:59:44 51°13.599 2°56.094 128.2 0.1 253 -999
2007-01-31 07:59:49 51°13.599 2°56.094 128.2 0.1 253 -999
2007-01-31 07:59:54 51°13.599 2°56.094 128 -999 311 -999
2007-01-31 07:59:59 51°13.599 2°56.094 127.7 -999 287 -999
2007-01-31 08:00:04 51°13.599 2°56.094 127.4 -999 200 -999
2007-01-31 08:00:09 51°13.599 2°56.094 127.1 0.1 86 -999
2007-01-31 08:00:14 51°13.599 2°56.094 127.1 0.1 179 -999
2007-01-31 08:00:19 51°13.599 2°56.094 127.3 -999 257 -999
2007-01-31 08:00:24 51°13.599 2°56.094 127.7 -999 255 -999
2007-01-31 08:00:29 51°13.599 2°56.094 127.8 -999 21 -999
2007-01-31 08:00:34 51°13.599 2°56.094 127.8 -999 158 -999
2007-01-31 08:00:39 51°13.599 2°56.094 127.7 0.1 143 -999
2007-01-31 08:00:44 51°13.599 2°56.094 127.7 0.1 162 -999
2007-01-31 08:00:49 51°13.599 2°56.094 128 0.1 170 -999
2007-01-31 08:00:54 51°13.599 2°56.094 128.3 -999 161 -999
2007-01-31 08:00:59 51°13.599 2°56.094 128.4 -999 110 -999
2007-01-31 08:01:04 51°13.599 2°56.094 128.4 -999 36 -999
2007-01-31 08:01:09 51°13.599 2°56.094 128.3 -999 353 -999
2007-01-31 08:01:14 51°13.599 2°56.094 128.3 -999 231 -999
2007-01-31 08:01:19 51°13.599 2°56.094 128.4 0.1 198 -999
2007-01-31 08:01:24 51°13.599 2°56.094 128.4 -999 248 -999
2007-01-31 08:01:29 51°13.599 2°56.094 128.4 -999 257 -999
2007-01-31 08:01:34 51°13.599 2°56.094 128.3 -999 318 -999
2007-01-31 08:01:39 51°13.599 2°56.094 128.2 -999 326 -999
2007-01-31 08:01:44 51°13.599 2°56.094 127.8 0.1 338 -999
2007-01-31 08:01:49 51°13.599 2°56.094 127.7 -999 189 -999
2007-01-31 08:01:54 51°13.599 2°56.094 127.7 -999 73 -999
2007-01-31 08:01:59 51°13.599 2°56.094 127.7 -999 56 -999
2007-01-31 08:02:04 51°13.599 2°56.094 127.7 -999 115 -999
2007-01-31 08:02:09 51°13.599 2°56.094 127.9 -999 126 -999
2007-01-31 08:02:14 51°13.599 2°56.095 128.2 0.1 149 -999
2007-01-31 08:02:19 51°13.598 2°56.095 128.3 -999 156 -999
2007-01-31 08:02:24 51°13.598 2°56.095 128.3 -999 246 -999
2007-01-31 08:02:29 51°13.598 2°56.095 128.3 -999 281 -999
2007-01-31 08:02:34 51°13.598 2°56.095 128.3 -999 19 -999
2007-01-31 08:02:39 51°13.598 2°56.095 128.3 -999 187 -999
2007-01-31 08:02:44 51°13.598 2°56.095 128.3 -999 300 -999
2007-01-31 08:02:49 51°13.598 2°56.095 128.3 -999 10 -999
2007-01-31 08:02:54 51°13.598 2°56.095 128.3 -999 117 -999
2007-01-31 08:02:59 51°13.598 2°56.095 128.3 -999 206 -999
2007-01-31 08:03:04 51°13.598 2°56.095 128.3 -999 261 -999
2007-01-31 08:03:09 51°13.598 2°56.095 128.3 -999 284 -999
2007-01-31 08:03:14 51°13.598 2°56.095 128.3 -999 272 -999
2007-01-31 08:03:19 51°13.598 2°56.095 128.3 -999 167 -999
2007-01-31 08:03:24 51°13.598 2°56.095 128.3 -999 161 -999
2007-01-31 08:03:29 51°13.598 2°56.095 128.2 -999 195 -999
2007-01-31 08:03:34 51°13.598 2°56.095 128.2 -999 359 -999
2007-01-31 08:03:39 51°13.598 2°56.095 128.2 -999 244 -999
2007-01-31 08:03:44 51°13.598 2°56.095 128.2 -999 260 -999
2007-01-31 08:03:49 51°13.598 2°56.095 128.2 -999 234 -999
2007-01-31 08:03:54 51°13.598 2°56.095 128.2 -999 281 -999
2007-01-31 08:03:59 51°13.598 2°56.095 128.2 -999 354 -999
2007-01-31 08:04:04 51°13.598 2°56.095 128.2 -999 89 -999
2007-01-31 08:04:09 51°13.598 2°56.095 128.2 -999 157 -999
2007-01-31 08:04:14 51°13.598 2°56.095 128.2 -999 173 -999
2007-01-31 08:04:19 51°13.598 2°56.095 128.2 -999 137 -999
2007-01-31 08:04:24 51°13.598 2°56.095 128.2 0.1 172 -999
2007-01-31 08:04:29 51°13.598 2°56.095 128.2 -999 347 -999
2007-01-31 08:04:34 51°13.598 2°56.094 128.2 0.1 339 -999
2007-01-31 08:04:39 51°13.598 2°56.094 128.3 -999 322 -999
2007-01-31 08:04:44 51°13.598 2°56.094 128.3 -999 298 -999
2007-01-31 08:04:49 51°13.598 2°56.094 128.1 -999 232 -999
2007-01-31 08:04:54 51°13.598 2°56.094 127.8 -999 16 -999
2007-01-31 08:04:59 51°13.598 2°56.094 127.7 -999 84 -999
2007-01-31 08:05:04 51°13.598 2°56.094 127.7 -999 151 -999
2007-01-31 08:05:09 51°13.598 2°56.094 127.9 -999 136 -999
2007-01-31 08:05:14 51°13.598 2°56.095 128.2 -999 47 -999
2007-01-31 08:05:19 51°13.598 2°56.094 128.4 -999 308 -999
2007-01-31 08:05:24 51°13.598 2°56.094 128.3 -999 287 -999
2007-01-31 08:05:29 51°13.598 2°56.094 128.2 -999 187 -999
2007-01-31 08:05:34 51°13.598 2°56.095 128.2 -999 103 -999
2007-01-31 08:05:39 51°13.598 2°56.095 128.2 -999 75 -999
2007-01-31 08:05:44 51°13.598 2°56.095 128.2 -999 170 -999
2007-01-31 08:05:49 51°13.598 2°56.095 128.2 -999 256 -999
2007-01-31 08:05:54 51°13.598 2°56.095 128.2 -999 298 -999
2007-01-31 08:05:59 51°13.598 2°56.095 128.2 -999 343 -999
2007-01-31 08:06:04 51°13.598 2°56.095 128.2 -999 296 -999
2007-01-31 08:06:09 51°13.598 2°56.095 128.1 -999 283 -999
2007-01-31 08:06:14 51°13.598 2°56.095 128.1 -999 173 -999
2007-01-31 08:06:19 51°13.598 2°56.095 128.1 -999 152 -999
2007-01-31 08:06:24 51°13.598 2°56.095 128.1 -999 295 -999
2007-01-31 08:06:29 51°13.598 2°56.096 128.1 -999 357 -999
2007-01-31 08:06:34 51°13.598 2°56.096 128.1 -999 353 -999
2007-01-31 08:06:39 51°13.598 2°56.096 128.1 -999 147 -999
2007-01-31 08:06:44 51°13.598 2°56.096 128.1 -999 260 -999
2007-01-31 08:06:49 51°13.597 2°56.096 128.1 0.1 201 -999
2007-01-31 08:06:54 51°13.597 2°56.096 128.1 -999 186 -999
2007-01-31 08:06:59 51°13.597 2°56.096 128.1 0.1 210 -999
2007-01-31 08:07:04 51°13.597 2°56.096 128.1 -999 234 -999
2007-01-31 08:07:09 51°13.597 2°56.096 128.1 -999 195 -999
2007-01-31 08:07:14 51°13.597 2°56.096 128.1 -999 281 -999
2007-01-31 08:07:19 51°13.597 2°56.096 128.1 -999 345 -999
2007-01-31 08:07:24 51°13.597 2°56.096 128.1 -999 353 -999
2007-01-31 08:07:29 51°13.596 2°56.097 128.1 -999 348 -999
2007-01-31 08:07:34 51°13.596 2°56.097 128.1 -999 359 -999
2007-01-31 08:07:39 51°13.596 2°56.097 128.1 -999 273 -999
2007-01-31 08:07:44 51°13.596 2°56.097 128 -999 114 -999
2007-01-31 08:07:49 51°13.596 2°56.097 128 -999 208 -999
2007-01-31 08:07:54 51°13.596 2°56.097 128 -999 131 -999
2007-01-31 08:07:59 51°13.596 2°56.097 128 -999 1 -999
2007-01-31 08:08:04 51°13.596 2°56.097 128 -999 216 -999
2007-01-31 08:08:09 51°13.596 2°56.097 128 -999 101 -999
2007-01-31 08:08:14 51°13.596 2°56.097 128 -999 213 -999
2007-01-31 08:08:19 51°13.596 2°56.097 128 -999 142 -999
2007-01-31 08:08:24 51°13.596 2°56.097 128 -999 161 -999
2007-01-31 08:08:29 51°13.596 2°56.097 128 -999 68 -999
2007-01-31 08:08:34 51°13.596 2°56.097 128 -999 204 -999
2007-01-31 08:08:39 51°13.596 2°56.097 128 -999 197 -999
2007-01-31 08:08:44 51°13.596 2°56.097 128 -999 193 -999
2007-01-31 08:08:49 51°13.596 2°56.097 128 -999 208 -999
2007-01-31 08:08:54 51°13.596 2°56.097 128 -999 172 -999
2007-01-31 08:08:59 51°13.596 2°56.097 127.8 -999 117 -999
2007-01-31 08:09:04 51°13.596 2°56.097 127.8 -999 152 -999
2007-01-31 08:09:09 51°13.596 2°56.097 127.8 -999 37 -999
2007-01-31 08:09:14 51°13.596 2°56.097 127.8 -999 92 -999
2007-01-31 08:09:19 51°13.596 2°56.097 127.8 -999 301 -999
2007-01-31 08:09:24 51°13.596 2°56.097 127.8 -999 352 -999
2007-01-31 08:09:29 51°13.596 2°56.097 127.8 -999 307 -999
2007-01-31 08:09:34 51°13.597 2°56.097 127.8 -999 3 -999
2007-01-31 08:09:39 51°13.596 2°56.097 127.8 -999 59 -999
2007-01-31 08:09:44 51°13.596 2°56.097 127.8 -999 111 -999
2007-01-31 08:09:49 51°13.597 2°56.097 127.8 -999 156 -999
2007-01-31 08:09:54 51°13.597 2°56.097 127.8 0.1 182 -999
2007-01-31 08:09:59 51°13.597 2°56.097 127.8 -999 207 -999
2007-01-31 08:10:04 51°13.597 2°56.097 127.8 -999 262 -999
2007-01-31 08:10:09 51°13.597 2°56.097 127.8 -999 66 -999
2007-01-31 08:10:14 51°13.597 2°56.097 127.8 -999 34 -999
2007-01-31 08:10:19 51°13.597 2°56.097 127.8 -999 46 -999
2007-01-31 08:10:24 51°13.597 2°56.097 127.8 -999 264 -999
2007-01-31 08:10:29 51°13.597 2°56.097 127.8 -999 157 -999
2007-01-31 08:10:34 51°13.597 2°56.097 127.8 -999 22 -999
2007-01-31 08:10:39 51°13.597 2°56.097 127.8 -999 237 -999
2007-01-31 08:10:44 51°13.597 2°56.097 127.8 -999 184 -999
2007-01-31 08:10:49 51°13.597 2°56.097 127.8 -999 81 -999
2007-01-31 08:10:54 51°13.597 2°56.097 127.8 -999 187 -999
2007-01-31 08:10:59 51°13.598 2°56.097 127.8 -999 196 -999
2007-01-31 08:11:04 51°13.598 2°56.097 127.8 -999 191 -999
2007-01-31 08:11:09 51°13.598 2°56.097 127.8 -999 231 -999
2007-01-31 08:11:14 51°13.598 2°56.097 127.8 -999 17 -999
2007-01-31 08:11:19 51°13.598 2°56.096 127.8 -999 9 -999
2007-01-31 08:11:24 51°13.598 2°56.096 127.8 -999 321 -999
2007-01-31 08:11:29 51°13.598 2°56.096 127.8 -999 17 -999
2007-01-31 08:11:34 51°13.598 2°56.096 127.8 -999 220 -999
2007-01-31 08:11:39 51°13.598 2°56.096 127.8 -999 344 -999
2007-01-31 08:11:44 51°13.598 2°56.096 127.8 -999 24 -999
2007-01-31 08:11:49 51°13.598 2°56.096 127.8 -999 71 -999
2007-01-31 08:11:54 51°13.598 2°56.096 127.8 -999 225 -999
2007-01-31 08:11:59 51°13.598 2°56.096 127.8 -999 124 -999
2007-01-31 08:12:04 51°13.598 2°56.096 127.8 -999 190 -999
2007-01-31 08:12:09 51°13.599 2°56.096 127.8 -999 29 -999
2007-01-31 08:12:14 51°13.599 2°56.096 127.7 -999 60 -999
2007-01-31 08:12:19 51°13.599 2°56.096 127.7 -999 12 -999
2007-01-31 08:12:24 51°13.599 2°56.096 127.7 -999 213 -999
2007-01-31 08:12:29 51°13.599 2°56.096 127.7 -999 270 -999
2007-01-31 08:12:34 51°13.599 2°56.096 127.7 -999 218 -999
2007-01-31 08:12:39 51°13.599 2°56.096 127.7 -999 199 -999
2007-01-31 08:12:44 51°13.599 2°56.096 127.7 -999 358 -999
2007-01-31 08:12:49 51°13.599 2°56.096 127.7 -999 158 -999
2007-01-31 08:12:54 51°13.599 2°56.096 127.7 -999 192 -999
2007-01-31 08:12:59 51°13.6 2°56.096 127.7 -999 30 -999
2007-01-31 08:13:04 51°13.6 2°56.096 127.7 -999 31 -999
2007-01-31 08:13:09 51°13.6 2°56.096 127.7 -999 183 -999
2007-01-31 08:13:14 51°13.6 2°56.096 127.7 -999 193 -999
2007-01-31 08:13:19 51°13.6 2°56.096 127.7 -999 273 -999
2007-01-31 08:13:24 51°13.6 2°56.095 127.7 -999 189 -999
2007-01-31 08:13:29 51°13.599 2°56.095 127.7 -999 143 -999
2007-01-31 08:13:34 51°13.599 2°56.095 127.7 -999 344 -999
2007-01-31 08:13:39 51°13.599 2°56.095 127.7 -999 359 -999
2007-01-31 08:13:44 51°13.599 2°56.095 127.7 -999 173 -999
2007-01-31 08:13:49 51°13.599 2°56.095 127.7 -999 206 -999
2007-01-31 08:13:54 51°13.6 2°56.095 127.7 -999 20 -999
2007-01-31 08:13:59 51°13.6 2°56.095 127.7 -999 25 -999
2007-01-31 08:14:04 51°13.6 2°56.095 127.7 -999 312 -999
2007-01-31 08:14:09 51°13.6 2°56.095 127.7 -999 199 -999
2007-01-31 08:14:14 51°13.6 2°56.095 127.7 -999 239 -999
2007-01-31 08:14:19 51°13.6 2°56.095 127.7 -999 224 -999
2007-01-31 08:14:24 51°13.6 2°56.095 127.7 -999 347 -999
2007-01-31 08:14:29 51°13.6 2°56.095 127.7 -999 259 -999
2007-01-31 08:14:34 51°13.6 2°56.095 127.7 -999 225 -999
2007-01-31 08:14:39 51°13.6 2°56.095 127.7 -999 227 -999
2007-01-31 08:14:44 51°13.6 2°56.095 127.7 -999 171 -999
2007-01-31 08:14:49 51°13.6 2°56.095 127.7 -999 146 -999
2007-01-31 08:14:54 51°13.6 2°56.095 127.7 -999 16 -999
2007-01-31 08:14:59 51°13.6 2°56.095 127.7 -999 4 -999
2007-01-31 08:15:04 51°13.6 2°56.095 127.7 -999 359 -999
2007-01-31 08:15:09 51°13.6 2°56.095 127.7 -999 353 -999
2007-01-31 08:15:14 51°13.6 2°56.095 127.7 -999 85 -999
2007-01-31 08:15:19 51°13.601 2°56.095 127.7 -999 176 -999
2007-01-31 08:15:24 51°13.601 2°56.095 127.7 -999 176 -999
2007-01-31 08:15:29 51°13.601 2°56.095 127.7 -999 290 -999
2007-01-31 08:15:34 51°13.601 2°56.095 127.7 -999 300 -999
2007-01-31 08:15:39 51°13.601 2°56.095 127.7 -999 145 -999
2007-01-31 08:15:44 51°13.601 2°56.095 127.7 -999 231 -999
2007-01-31 08:15:49 51°13.601 2°56.095 127.7 -999 184 -999
2007-01-31 08:15:54 51°13.601 2°56.094 127.7 -999 185 -999
2007-01-31 08:15:59 51°13.601 2°56.094 127.7 -999 186 -999
2007-01-31 08:16:04 51°13.601 2°56.094 127.7 -999 289 -999
2007-01-31 08:16:09 51°13.601 2°56.094 127.7 -999 337 -999
2007-01-31 08:16:14 51°13.601 2°56.094 127.7 -999 105 -999
2007-01-31 08:16:19 51°13.601 2°56.094 127.7 -999 192 -999
2007-01-31 08:16:24 51°13.601 2°56.094 127.7 -999 184 -999
2007-01-31 08:16:29 51°13.601 2°56.094 127.7 -999 221 -999
2007-01-31 08:16:34 51°13.601 2°56.094 127.7 -999 358 -999
2007-01-31 08:16:39 51°13.601 2°56.094 127.7 -999 345 -999
2007-01-31 08:16:44 51°13.601 2°56.094 127.7 -999 174 -999
2007-01-31 08:16:49 51°13.601 2°56.094 127.7 -999 313 -999
2007-01-31 08:16:54 51°13.601 2°56.094 127.7 -999 246 -999
2007-01-31 08:16:59 51°13.601 2°56.094 127.6 -999 356 -999
2007-01-31 08:17:04 51°13.601 2°56.094 127.6 -999 6 -999
2007-01-31 08:17:09 51°13.601 2°56.094 127.6 -999 350 -999
2007-01-31 08:17:14 51°13.601 2°56.094 127.6 -999 193 -999
2007-01-31 08:17:19 51°13.601 2°56.094 127.6 -999 342 -999
2007-01-31 08:17:24 51°13.601 2°56.094 127.6 -999 321 -999
2007-01-31 08:17:29 51°13.601 2°56.094 127.6 -999 311 -999
2007-01-31 08:17:34 51°13.601 2°56.094 127.6 -999 223 -999
2007-01-31 08:17:39 51°13.601 2°56.094 127.6 -999 161 -999
2007-01-31 08:17:44 51°13.601 2°56.094 127.5 -999 198 -999
2007-01-31 08:17:49 51°13.601 2°56.094 127.5 -999 164 -999
2007-01-31 08:17:54 51°13.6 2°56.094 127.5 -999 209 -999
2007-01-31 08:17:59 51°13.6 2°56.094 127.5 -999 260 -999
2007-01-31 08:18:04 51°13.6 2°56.094 127.5 -999 356 -999
2007-01-31 08:18:09 51°13.6 2°56.094 127.5 -999 -999 -999
2007-01-31 08:18:14 51°13.6 2°56.094 127.5 -999 323 -999
2007-01-31 08:18:19 51°13.6 2°56.094 127.5 -999 340 -999
2007-01-31 08:18:24 51°13.6 2°56.094 127.5 -999 175 -999
2007-01-31 08:18:29 51°13.6 2°56.094 127.5 -999 217 -999
2007-01-31 08:18:34 51°13.6 2°56.094 127.5 -999 358 -999
2007-01-31 08:18:39 51°13.6 2°56.094 127.5 -999 185 -999
2007-01-31 08:18:44 51°13.6 2°56.094 127.5 0.1 188 -999
2007-01-31 08:18:49 51°13.6 2°56.094 127.5 -999 213 -999
2007-01-31 08:18:54 51°13.6 2°56.094 127.5 -999 55 -999
2007-01-31 08:18:59 51°13.6 2°56.094 127.5 -999 184 -999
2007-01-31 08:19:04 51°13.6 2°56.094 127.5 -999 17 -999
2007-01-31 08:19:09 51°13.6 2°56.094 127.5 -999 356 -999
2007-01-31 08:19:14 51°13.6 2°56.094 127.5 -999 346 -999
2007-01-31 08:19:19 51°13.6 2°56.094 127.5 0.1 8 -999
2007-01-31 08:19:24 51°13.6 2°56.094 127.5 -999 143 -999
2007-01-31 08:19:29 51°13.6 2°56.094 127.5 -999 169 -999
2007-01-31 08:19:34 51°13.6 2°56.094 127.5 -999 192 -999
2007-01-31 08:19:39 51°13.6 2°56.094 127.5 -999 211 -999
2007-01-31 08:19:44 51°13.6 2°56.094 127.5 -999 273 -999
2007-01-31 08:19:49 51°13.6 2°56.094 127.5 -999 25 -999
2007-01-31 08:19:54 51°13.6 2°56.094 127.5 -999 212 -999
2007-01-31 08:19:59 51°13.6 2°56.094 127.4 -999 209 -999
2007-01-31 08:20:04 51°13.6 2°56.094 127.4 -999 233 -999
2007-01-31 08:20:09 51°13.6 2°56.094 127.4 -999 144 -999
2007-01-31 08:20:14 51°13.6 2°56.094 127.4 -999 276 -999
2007-01-31 08:20:19 51°13.6 2°56.094 127.4 -999 353 -999
2007-01-31 08:20:24 51°13.6 2°56.093 127.4 -999 238 -999
2007-01-31 08:20:29 51°13.6 2°56.093 127.4 -999 177 -999
2007-01-31 08:20:34 51°13.6 2°56.093 127.4 -999 236 -999
2007-01-31 08:20:39 51°13.6 2°56.093 127.4 -999 207 -999
2007-01-31 08:20:44 51°13.6 2°56.093 127.4 -999 201 -999
2007-01-31 08:20:49 51°13.6 2°56.093 127.4 -999 208 -999
2007-01-31 08:20:54 51°13.6 2°56.093 127.4 -999 355 -999
2007-01-31 08:20:59 51°13.6 2°56.093 127.4 -999 219 -999
2007-01-31 08:21:04 51°13.6 2°56.093 127.4 -999 17 -999
2007-01-31 08:21:09 51°13.6 2°56.093 127.4 -999 222 -999
2007-01-31 08:21:14 51°13.599 2°56.093 127.4 -999 174 -999
2007-01-31 08:21:19 51°13.599 2°56.093 127.4 -999 145 -999
2007-01-31 08:21:24 51°13.599 2°56.093 127.4 -999 178 -999
2007-01-31 08:21:29 51°13.599 2°56.093 127.4 -999 243 -999
2007-01-31 08:21:34 51°13.599 2°56.093 127.4 -999 176 -999
2007-01-31 08:21:39 51°13.599 2°56.093 127.4 -999 194 -999
2007-01-31 08:21:44 51°13.599 2°56.093 127.4 -999 348 -999
2007-01-31 08:21:49 51°13.599 2°56.093 127.4 -999 345 -999
2007-01-31 08:21:54 51°13.599 2°56.093 127.4 -999 358 -999
2007-01-31 08:21:59 51°13.599 2°56.093 127.4 -999 357 -999
2007-01-31 08:22:04 51°13.599 2°56.093 127.4 -999 8 -999
2007-01-31 08:22:09 51°13.599 2°56.093 127.4 -999 311 -999
2007-01-31 08:22:14 51°13.599 2°56.093 127.4 -999 11 -999
2007-01-31 08:22:19 51°13.598 2°56.093 127.4 -999 191 -999
2007-01-31 08:22:24 51°13.598 2°56.093 127.4 -999 34 -999
2007-01-31 08:22:29 51°13.599 2°56.093 127.4 -999 356 -999
2007-01-31 08:22:34 51°13.598 2°56.093 127.4 -999 210 -999
2007-01-31 08:22:39 51°13.599 2°56.093 127.4 -999 299 -999
2007-01-31 08:22:44 51°13.598 2°56.093 127.4 -999 81 -999
2007-01-31 08:22:49 51°13.599 2°56.093 127.3 -999 22 -999
2007-01-31 08:22:54 51°13.599 2°56.093 127.3 -999 134 -999
2007-01-31 08:22:59 51°13.599 2°56.093 127.3 -999 194 -999
2007-01-31 08:23:04 51°13.599 2°56.094 127.3 -999 168 -999
2007-01-31 08:23:09 51°13.599 2°56.093 127.3 -999 198 -999
2007-01-31 08:23:14 51°13.599 2°56.093 127.3 -999 190 -999
2007-01-31 08:23:19 51°13.599 2°56.093 127.3 -999 71 -999
2007-01-31 08:23:24 51°13.599 2°56.093 127.3 -999 192 -999
2007-01-31 08:23:29 51°13.599 2°56.093 127.3 -999 194 -999
2007-01-31 08:23:34 51°13.599 2°56.093 127.3 -999 197 -999
2007-01-31 08:23:39 51°13.599 2°56.093 127.3 -999 181 -999
2007-01-31 08:23:44 51°13.599 2°56.093 127.3 -999 156 -999
2007-01-31 08:23:49 51°13.599 2°56.093 127.3 -999 199 -999
2007-01-31 08:23:54 51°13.599 2°56.093 127.3 -999 73 -999
2007-01-31 08:23:59 51°13.599 2°56.093 127.3 -999 354 -999
2007-01-31 08:24:04 51°13.599 2°56.093 127.3 -999 335 -999
2007-01-31 08:24:09 51°13.599 2°56.093 127.3 -999 159 -999
2007-01-31 08:24:14 51°13.599 2°56.093 127.3 -999 290 -999
2007-01-31 08:24:19 51°13.599 2°56.094 127.3 -999 11 -999
2007-01-31 08:24:24 51°13.599 2°56.094 127.3 -999 7 -999
2007-01-31 08:24:29 51°13.599 2°56.094 127.3 -999 355 -999
2007-01-31 08:24:34 51°13.599 2°56.094 127.3 -999 249 -999
2007-01-31 08:24:39 51°13.6 2°56.094 127.3 -999 301 -999
2007-01-31 08:24:44 51°13.6 2°56.094 127.3 -999 322 -999
2007-01-31 08:24:49 51°13.6 2°56.093 127.3 -999 176 -999
2007-01-31 08:24:54 51°13.6 2°56.093 127.3 -999 143 -999
2007-01-31 08:24:59 51°13.6 2°56.093 127.3 -999 2 -999
2007-01-31 08:25:04 51°13.6 2°56.093 127.3 -999 197 -999
2007-01-31 08:25:09 51°13.6 2°56.093 127.3 -999 263 -999
2007-01-31 08:25:14 51°13.6 2°56.094 127.3 -999 192 -999
2007-01-31 08:25:19 51°13.599 2°56.094 127.3 -999 152 -999
2007-01-31 08:25:24 51°13.599 2°56.094 127.3 -999 255 -999
2007-01-31 08:25:29 51°13.599 2°56.094 127.3 -999 309 -999
2007-01-31 08:25:34 51°13.599 2°56.094 127.3 -999 183 -999
2007-01-31 08:25:39 51°13.599 2°56.094 127.3 -999 174 -999
2007-01-31 08:25:44 51°13.599 2°56.095 127.3 -999 186 -999
2007-01-31 08:25:49 51°13.599 2°56.094 127.3 -999 289 -999
2007-01-31 08:25:54 51°13.599 2°56.095 127.3 -999 37 -999
2007-01-31 08:25:59 51°13.599 2°56.095 127.3 -999 164 -999
2007-01-31 08:26:04 51°13.599 2°56.095 127.3 -999 208 -999
2007-01-31 08:26:09 51°13.599 2°56.095 127.3 -999 280 -999
2007-01-31 08:26:14 51°13.599 2°56.095 127.3 -999 297 -999
2007-01-31 08:26:19 51°13.599 2°56.095 127.3 -999 307 -999
2007-01-31 08:26:24 51°13.599 2°56.095 127.3 -999 331 -999
2007-01-31 08:26:29 51°13.598 2°56.095 127.3 -999 347 -999
2007-01-31 08:26:34 51°13.598 2°56.095 127.3 -999 168 -999
2007-01-31 08:26:39 51°13.598 2°56.095 127.3 -999 54 -999
2007-01-31 08:26:44 51°13.598 2°56.095 127.3 -999 163 -999
2007-01-31 08:26:49 51°13.598 2°56.095 127.3 -999 205 -999
2007-01-31 08:26:54 51°13.598 2°56.095 127.3 -999 284 -999
2007-01-31 08:26:59 51°13.598 2°56.095 127.3 -999 291 -999
2007-01-31 08:27:04 51°13.599 2°56.095 127.3 -999 339 -999
2007-01-31 08:27:09 51°13.599 2°56.095 127.3 -999 305 -999
2007-01-31 08:27:14 51°13.599 2°56.095 127.3 -999 155 -999
2007-01-31 08:27:19 51°13.599 2°56.095 127.2 -999 184 -999
2007-01-31 08:27:24 51°13.599 2°56.095 127.2 -999 200 -999
2007-01-31 08:27:29 51°13.599 2°56.095 127.2 -999 123 -999
2007-01-31 08:27:34 51°13.599 2°56.095 127.2 -999 194 -999
2007-01-31 08:27:39 51°13.599 2°56.095 127.2 -999 138 -999
2007-01-31 08:27:44 51°13.599 2°56.095 127.2 -999 168 -999
2007-01-31 08:27:49 51°13.599 2°56.095 127.2 -999 153 -999
2007-01-31 08:27:54 51°13.599 2°56.095 127.2 -999 165 -999
2007-01-31 08:27:59 51°13.599 2°56.095 127.2 -999 157 -999
2007-01-31 08:28:04 51°13.599 2°56.095 127.2 -999 213 -999
2007-01-31 08:28:09 51°13.599 2°56.095 127.2 -999 279 -999
2007-01-31 08:28:14 51°13.599 2°56.095 127.2 -999 164 -999
2007-01-31 08:28:19 51°13.599 2°56.095 127.2 -999 302 -999
2007-01-31 08:28:24 51°13.599 2°56.095 127.2 -999 156 -999
2007-01-31 08:28:29 51°13.599 2°56.095 127.1 -999 154 -999
2007-01-31 08:28:34 51°13.599 2°56.095 127 -999 240 -999
2007-01-31 08:28:39 51°13.599 2°56.095 127 -999 185 -999
2007-01-31 08:28:44 51°13.599 2°56.095 127 -999 238 -999
2007-01-31 08:28:49 51°13.599 2°56.095 127 -999 310 -999
2007-01-31 08:28:54 51°13.599 2°56.095 126.8 -999 289 -999
2007-01-31 08:28:59 51°13.599 2°56.095 126.7 -999 145 -999
2007-01-31 08:29:04 51°13.599 2°56.095 126.7 -999 180 -999
2007-01-31 08:29:09 51°13.599 2°56.095 126.7 -999 206 -999
2007-01-31 08:29:14 51°13.599 2°56.095 126.7 -999 104 -999
2007-01-31 08:29:19 51°13.599 2°56.095 126.8 -999 212 -999
2007-01-31 08:29:24 51°13.599 2°56.095 126.8 -999 317 -999
2007-01-31 08:29:29 51°13.599 2°56.095 126.9 -999 211 -999
2007-01-31 08:29:34 51°13.599 2°56.095 126.9 -999 296 -999
2007-01-31 08:29:39 51°13.599 2°56.095 126.9 -999 338 -999
2007-01-31 08:29:44 51°13.599 2°56.096 126.9 -999 152 -999
2007-01-31 08:29:49 51°13.599 2°56.096 126.9 -999 64 -999
2007-01-31 08:29:54 51°13.599 2°56.096 126.9 -999 145 -999
2007-01-31 08:29:59 51°13.599 2°56.096 126.9 -999 135 -999
2007-01-31 08:30:04 51°13.599 2°56.096 126.9 -999 195 -999
2007-01-31 08:30:09 51°13.599 2°56.096 127 -999 280 -999
2007-01-31 08:30:14 51°13.599 2°56.096 127 -999 134 -999
2007-01-31 08:30:19 51°13.599 2°56.096 127 -999 183 -999
2007-01-31 08:30:24 51°13.599 2°56.096 127.1 -999 131 -999
2007-01-31 08:30:29 51°13.599 2°56.096 127.3 -999 143 -999
2007-01-31 08:30:34 51°13.599 2°56.096 127.3 -999 253 -999
2007-01-31 08:30:39 51°13.599 2°56.096 127.3 -999 242 -999
2007-01-31 08:30:44 51°13.598 2°56.096 127.3 -999 121 -999
2007-01-31 08:30:49 51°13.598 2°56.096 127.2 -999 322 -999
2007-01-31 08:30:54 51°13.598 2°56.096 127.2 -999 196 7.6
2007-01-31 08:30:59 51°13.598 2°56.096 127.2 -999 38 7.6
2007-01-31 08:31:03 51°13.598 2°56.096 127.2 -999 236 7.7
2007-01-31 08:31:09 51°13.598 2°56.096 127.2 -999 117 7.6
2007-01-31 08:31:14 51°13.598 2°56.096 127.2 -999 151 7.6
2007-01-31 08:31:19 51°13.598 2°56.096 127.2 -999 137 7.7
2007-01-31 08:31:24 51°13.598 2°56.096 127.2 -999 169 7.6
2007-01-31 08:31:29 51°13.598 2°56.096 127.2 -999 246 5.6
2007-01-31 08:31:34 51°13.598 2°56.096 127.2 -999 255 7.6
2007-01-31 08:31:38 51°13.598 2°56.096 127.2 -999 208 7.6
2007-01-31 08:31:44 51°13.598 2°56.096 127.2 -999 322 7.6
2007-01-31 08:31:49 51°13.598 2°56.096 127.3 -999 303 7.6
2007-01-31 08:31:54 51°13.597 2°56.096 127.3 -999 89 7.6
2007-01-31 08:31:58 51°13.597 2°56.096 127.3 -999 179 7.6
2007-01-31 08:32:03 51°13.597 2°56.096 127.3 -999 19 7.6
2007-01-31 08:32:09 51°13.597 2°56.096 127.3 -999 197 7.6
2007-01-31 08:32:14 51°13.597 2°56.096 127.3 -999 352 7.6
2007-01-31 08:32:19 51°13.597 2°56.096 127.3 -999 185 7.6
2007-01-31 08:32:23 51°13.597 2°56.096 127.3 -999 321 5.6
2007-01-31 08:32:28 51°13.597 2°56.096 127.3 -999 213 7.6
2007-01-31 08:32:34 51°13.597 2°56.096 127.3 -999 287 7.6
2007-01-31 08:32:39 51°13.597 2°56.096 127.3 -999 270 7.6
2007-01-31 08:32:43 51°13.597 2°56.096 127.3 -999 231 7.6
2007-01-31 08:32:49 51°13.597 2°56.096 127.3 -999 307 7.6
2007-01-31 08:32:54 51°13.597 2°56.096 127.3 -999 61 7.6
2007-01-31 08:32:59 51°13.597 2°56.096 127.3 -999 109 7.6
2007-01-31 08:33:03 51°13.597 2°56.096 127.3 -999 161 7.6
2007-01-31 08:33:09 51°13.597 2°56.096 127.3 -999 136 7.6
2007-01-31 08:33:13 51°13.597 2°56.096 127.3 -999 166 7.7
2007-01-31 08:33:19 51°13.597 2°56.096 127.3 -999 287 7.6
2007-01-31 08:33:24 51°13.597 2°56.097 127.3 -999 167 7.6
2007-01-31 08:33:29 51°13.597 2°56.097 127.2 -999 86 7.6
2007-01-31 08:33:33 51°13.597 2°56.097 127.2 -999 90 7.6
2007-01-31 08:33:39 51°13.597 2°56.097 127.2 -999 139 7.6
2007-01-31 08:33:44 51°13.597 2°56.097 127.2 -999 167 7.6
2007-01-31 08:33:49 51°13.597 2°56.097 127.2 -999 166 7.6
2007-01-31 08:33:54 51°13.597 2°56.097 127.2 -999 258 7.6
2007-01-31 08:33:58 51°13.597 2°56.097 127.2 -999 128 7.6
2007-01-31 08:34:03 51°13.597 2°56.097 127.2 -999 320 7.7
2007-01-31 08:34:09 51°13.597 2°56.097 127.1 -999 175 7.7
2007-01-31 08:34:14 51°13.597 2°56.097 127.1 -999 171 7.7
2007-01-31 08:34:18 51°13.597 2°56.097 127.1 -999 320 7.7
2007-01-31 08:34:23 51°13.597 2°56.097 127.1 -999 179 7.6
2007-01-31 08:34:29 51°13.597 2°56.097 127.1 -999 158 7.7
2007-01-31 08:34:34 51°13.597 2°56.097 127.1 -999 246 7.7
2007-01-31 08:34:38 51°13.597 2°56.097 127.1 -999 174 7.7
2007-01-31 08:34:43 51°13.597 2°56.097 127.1 -999 334 7.7
2007-01-31 08:34:48 51°13.597 2°56.097 127.1 -999 157 7.7
2007-01-31 08:34:54 51°13.597 2°56.097 127.1 -999 122 7.7
2007-01-31 08:34:59 51°13.597 2°56.097 127.1 -999 176 7.7
2007-01-31 08:35:03 51°13.597 2°56.097 127.1 -999 166 7.7
2007-01-31 08:35:09 51°13.597 2°56.097 127.1 -999 255 7.7
2007-01-31 08:35:13 51°13.597 2°56.097 127.1 -999 251 7.7
2007-01-31 08:35:19 51°13.597 2°56.097 127.2 -999 212 7.7
2007-01-31 08:35:24 51°13.597 2°56.097 127.2 -999 147 7.7
2007-01-31 08:35:29 51°13.597 2°56.097 127.3 -999 140 7.7
2007-01-31 08:35:33 51°13.597 2°56.097 127.3 -999 33 7.7
2007-01-31 08:35:39 51°13.597 2°56.097 127.3 -999 79 7.7
2007-01-31 08:35:44 51°13.597 2°56.097 127.3 -999 191 7.8
2007-01-31 08:35:49 51°13.597 2°56.097 127.3 -999 204 7.7
2007-01-31 08:35:54 51°13.597 2°56.097 127.3 -999 219 7.8
2007-01-31 08:35:58 51°13.597 2°56.097 127.3 -999 322 7.7
2007-01-31 08:36:04 51°13.597 2°56.097 127.3 -999 143 7.7
2007-01-31 08:36:09 51°13.597 2°56.097 127.3 -999 346 7.7
2007-01-31 08:36:14 51°13.597 2°56.097 127.3 -999 283 7.8
2007-01-31 08:36:18 51°13.597 2°56.097 127.3 -999 209 7.8
2007-01-31 08:36:24 51°13.597 2°56.097 127.2 -999 160 7.7
2007-01-31 08:36:29 51°13.597 2°56.097 127.1 -999 174 7.7
2007-01-31 08:36:34 51°13.597 2°56.097 127.1 -999 348 7.7
2007-01-31 08:36:38 51°13.597 2°56.097 127.1 -999 126 7.8
2007-01-31 08:36:43 51°13.597 2°56.097 127.1 -999 162 7.7
2007-01-31 08:36:49 51°13.597 2°56.097 127.1 -999 327 7.7
2007-01-31 08:36:54 51°13.597 2°56.097 127.1 -999 322 7.8
2007-01-31 08:36:59 51°13.597 2°56.097 127.1 -999 150 7.8
2007-01-31 08:37:03 51°13.597 2°56.097 127.1 -999 121 7.8
2007-01-31 08:37:09 51°13.597 2°56.097 127.1 -999 141 7.8
2007-01-31 08:37:14 51°13.597 2°56.097 127.1 -999 154 7.8
2007-01-31 08:37:19 51°13.598 2°56.096 127.1 -999 228 7.8
2007-01-31 08:37:23 51°13.598 2°56.096 127.1 -999 355 7.8
2007-01-31 08:37:29 51°13.598 2°56.096 127.1 -999 136 7.8
2007-01-31 08:37:33 51°13.597 2°56.096 127.1 -999 47 7.8
2007-01-31 08:37:39 51°13.598 2°56.096 127.1 -999 303 7.8
2007-01-31 08:37:44 51°13.597 2°56.096 127.1 -999 246 7.8
2007-01-31 08:37:49 51°13.597 2°56.096 127.1 -999 107 7.8
2007-01-31 08:37:53 51°13.597 2°56.096 127.1 -999 232 7.8
2007-01-31 08:37:59 51°13.597 2°56.096 127.1 -999 286 7.8
2007-01-31 08:38:04 51°13.597 2°56.096 127.1 -999 345 7.8
2007-01-31 08:38:09 51°13.597 2°56.096 127.1 -999 196 7.8
2007-01-31 08:38:14 51°13.597 2°56.096 127.1 -999 168 7.8
2007-01-31 08:38:18 51°13.597 2°56.096 127.1 -999 275 7.8
2007-01-31 08:38:24 51°13.597 2°56.096 127.1 -999 179 7.8
2007-01-31 08:38:29 51°13.597 2°56.096 127.1 -999 227 7.8
2007-01-31 08:38:34 51°13.597 2°56.097 127.1 -999 205 7.8
2007-01-31 08:38:38 51°13.597 2°56.097 127.1 -999 133 7.8
2007-01-31 08:38:43 51°13.597 2°56.097 127.1 -999 329 7.8
2007-01-31 08:38:49 51°13.597 2°56.097 127.2 -999 207 7.8
2007-01-31 08:38:54 51°13.597 2°56.097 127.2 -999 164 7.8
2007-01-31 08:38:58 51°13.597 2°56.097 127.2 -999 146 7.8
2007-01-31 08:39:03 51°13.597 2°56.097 127.2 -999 339 7.8
2007-01-31 08:39:09 51°13.597 2°56.097 127.2 -999 155 7.8
2007-01-31 08:39:14 51°13.597 2°56.097 127.3 -999 195 7.8
2007-01-31 08:39:18 51°13.597 2°56.097 127.3 -999 172 7.8
2007-01-31 08:39:23 51°13.597 2°56.097 127.3 -999 146 7.8
2007-01-31 08:39:28 51°13.597 2°56.097 127.3 -999 158 7.8
2007-01-31 08:39:34 51°13.597 2°56.097 127.3 -999 340 7.8
2007-01-31 08:39:39 51°13.597 2°56.097 127.2 -999 162 7.8
2007-01-31 08:39:43 51°13.597 2°56.097 127.2 -999 120 7.8
2007-01-31 08:39:49 51°13.597 2°56.097 127.2 -999 47 7.8
2007-01-31 08:39:54 51°13.597 2°56.096 127.2 -999 167 7.8
2007-01-31 08:39:59 51°13.597 2°56.096 127.2 -999 332 7.9
2007-01-31 08:40:04 51°13.597 2°56.096 127.2 -999 307 7.9
2007-01-31 08:40:09 51°13.597 2°56.096 127.3 0.1 117 7.8
2007-01-31 08:40:13 51°13.597 2°56.097 127.3 0.1 105 7.8
2007-01-31 08:40:19 51°13.597 2°56.097 127.4 -999 120 7.8
2007-01-31 08:40:23 51°13.597 2°56.097 127.3 0.1 70 7.9
2007-01-31 08:40:29 51°13.597 2°56.097 126.9 -999 45 7.8
2007-01-31 08:40:34 51°13.597 2°56.097 126.3 -999 221 7.8
2007-01-31 08:40:38 51°13.597 2°56.097 125.8 -999 112 7.8
2007-01-31 08:40:44 51°13.597 2°56.097 125.3 -999 242 7.8
2007-01-31 08:40:49 51°13.596 2°56.097 125.1 -999 195 7.9
2007-01-31 08:40:54 51°13.596 2°56.097 124.9 -999 180 7.8
2007-01-31 08:40:58 51°13.596 2°56.097 124.8 -999 194 7.8
2007-01-31 08:41:03 51°13.596 2°56.097 124.8 -999 78 7.8
2007-01-31 08:41:09 51°13.596 2°56.097 124.8 -999 31 7.8
2007-01-31 08:41:14 51°13.596 2°56.097 124.7 -999 344 7.8
2007-01-31 08:41:18 51°13.596 2°56.096 124.7 -999 297 7.8
2007-01-31 08:41:23 51°13.596 2°56.096 124.8 -999 268 7.8
2007-01-31 08:41:28 51°13.596 2°56.096 124.8 -999 312 7.8
2007-01-31 08:41:34 51°13.596 2°56.096 124.8 -999 35 7.8
2007-01-31 08:41:39 51°13.596 2°56.096 124.8 -999 175 7.8
2007-01-31 08:41:43 51°13.596 2°56.097 124.8 -999 74 7.8
2007-01-31 08:41:49 51°13.596 2°56.097 124.7 -999 302 7.8
2007-01-31 08:41:54 51°13.596 2°56.097 124.5 -999 2 7.8
2007-01-31 08:41:59 51°13.596 2°56.097 124.3 -999 152 7.8
2007-01-31 08:42:04 51°13.596 2°56.097 124.1 -999 309 7.8
2007-01-31 08:42:09 51°13.597 2°56.097 123.8 0.1 167 7.8
2007-01-31 08:42:13 51°13.597 2°56.097 123.4 -999 198 7.8
2007-01-31 08:42:19 51°13.597 2°56.097 122.8 -999 207 7.8
2007-01-31 08:42:23 51°13.597 2°56.097 122.1 0.1 182 7.8
2007-01-31 08:42:29 51°13.597 2°56.097 121.3 0.1 192 7.9
2007-01-31 08:42:34 51°13.597 2°56.097 120.5 0.1 188 7.8
2007-01-31 08:42:38 51°13.597 2°56.097 119.7 0.1 192 7.9
2007-01-31 08:42:44 51°13.597 2°56.096 118.9 0.1 184 7.9
2007-01-31 08:42:49 51°13.597 2°56.096 118.1 0.1 191 7.9
2007-01-31 08:42:54 51°13.597 2°56.096 117.2 0.1 239 7.9
2007-01-31 08:42:58 51°13.597 2°56.096 116.2 0.1 283 7.9
2007-01-31 08:43:04 51°13.597 2°56.096 115.5 0.2 293 8
2007-01-31 08:43:09 51°13.597 2°56.095 115 0.4 296 8
2007-01-31 08:43:14 51°13.597 2°56.093 114.7 0.7 293 8
2007-01-31 08:43:18 51°13.598 2°56.092 114.4 0.9 294 8
2007-01-31 08:43:24 51°13.599 2°56.089 114.1 1.2 293 8
2007-01-31 08:43:29 51°13.6 2°56.086 114 1.5 295 8
2007-01-31 08:43:34 51°13.6 2°56.083 114 1.7 294 8.1
2007-01-31 08:43:39 51°13.602 2°56.079 114.3 2 294 -999
2007-01-31 08:43:44 51°13.603 2°56.075 114.6 2.2 293 -999
2007-01-31 08:43:49 51°13.604 2°56.07 114.9 2.4 293 -999
2007-01-31 08:43:54 51°13.606 2°56.064 115.4 2.6 294 -999
2007-01-31 08:43:59 51°13.607 2°56.059 116.1 2.8 293 -999
2007-01-31 08:44:04 51°13.609 2°56.053 116.4 3 296 -999
2007-01-31 08:44:09 51°13.611 2°56.046 116.8 3.2 295 -999
2007-01-31 08:44:14 51°13.613 2°56.04 116.8 3.4 296 -999
2007-01-31 08:44:19 51°13.615 2°56.032 117 3.6 295 -999
2007-01-31 08:44:24 51°13.617 2°56.025 117.2 3.8 296 -999
2007-01-31 08:44:29 51°13.62 2°56.017 117.3 3.9 295 -999
2007-01-31 08:44:34 51°13.622 2°56.009 117.4 4.1 295 -999
2007-01-31 08:44:39 51°13.625 2°56 117.5 4.2 296 -999
2007-01-31 08:44:44 51°13.628 2°55.992 117.5 4.3 295 -999
2007-01-31 08:44:49 51°13.63 2°55.983 117.9 4.3 296 -999
2007-01-31 08:44:54 51°13.633 2°55.974 118.3 4.4 296 -999
2007-01-31 08:44:59 51°13.636 2°55.966 118.7 4.4 296 -999
2007-01-31 08:45:04 51°13.638 2°55.957 119.4 4.5 297 -999
2007-01-31 08:45:09 51°13.641 2°55.948 119.7 4.5 297 -999
2007-01-31 08:45:14 51°13.644 2°55.939 119.9 4.6 298 -999
2007-01-31 08:45:19 51°13.647 2°55.93 120.1 4.6 297 -999
2007-01-31 08:45:24 51°13.65 2°55.921 120 4.7 298 -999
2007-01-31 08:45:29 51°13.653 2°55.912 119.4 4.6 298 -999
2007-01-31 08:45:34 51°13.656 2°55.903 118.8 4.6 297 -999
2007-01-31 08:45:39 51°13.659 2°55.893 117.6 4.6 296 -999
2007-01-31 08:45:44 51°13.662 2°55.884 116.4 4.6 296 -999
2007-01-31 08:45:49 51°13.665 2°55.875 114.6 4.6 295 -999
2007-01-31 08:45:54 51°13.667 2°55.866 113.2 4.4 293 -999
2007-01-31 08:45:59 51°13.669 2°55.857 112.1 4.3 293 -999
2007-01-31 08:46:04 51°13.671 2°55.849 110.6 4.1 291 -999
2007-01-31 08:46:09 51°13.673 2°55.841 109.4 4 290 -999
2007-01-31 08:46:14 51°13.675 2°55.833 108.2 3.9 289 4.7
2007-01-31 08:46:19 51°13.677 2°55.825 107.1 3.7 287 4.7
2007-01-31 08:46:24 51°13.678 2°55.817 105.8 3.5 286 10.9
2007-01-31 08:46:29 51°13.679 2°55.81 104.5 3.4 284 4.7
2007-01-31 08:46:34 51°13.68 2°55.803 102.2 3.3 283 4.8
2007-01-31 08:46:39 51°13.681 2°55.796 100.2 3.1 282 10.6
2007-01-31 08:46:43 51°13.682 2°55.791 98.3 3 281 11.1
2007-01-31 08:46:49 51°13.682 2°55.783 96.5 2.9 279 -999
2007-01-31 08:46:53 51°13.683 2°55.778 95 2.8 278 11.4
2007-01-31 08:46:59 51°13.683 2°55.771 92.9 2.7 276 4.9
2007-01-31 08:47:04 51°13.683 2°55.766 90.6 2.5 274 -999
2007-01-31 08:47:09 51°13.684 2°55.76 88.5 2.5 273 11.9
2007-01-31 08:47:14 51°13.684 2°55.755 86.6 2.4 271 11.6
2007-01-31 08:47:19 51°13.684 2°55.75 85.5 2.2 269 11.3
2007-01-31 08:47:24 51°13.683 2°55.745 83.8 2.1 268 11.2
2007-01-31 08:47:29 51°13.683 2°55.741 82.1 2 268 11.1
2007-01-31 08:47:33 51°13.683 2°55.738 80.5 1.7 267 11.6
2007-01-31 08:47:38 51°13.683 2°55.735 78.8 1.4 269 12.4
2007-01-31 08:47:44 51°13.683 2°55.732 76.8 1.1 271 -999
2007-01-31 08:47:49 51°13.683 2°55.73 73.2 0.9 276 -999
2007-01-31 08:47:54 51°13.683 2°55.728 68.7 0.6 284 -999
2007-01-31 08:47:59 51°13.684 2°55.728 65.2 0.5 301 -999
2007-01-31 08:48:04 51°13.684 2°55.727 62.2 0.4 330 -999
2007-01-31 08:48:09 51°13.685 2°55.727 57.4 0.5 356 -999
2007-01-31 08:48:14 51°13.686 2°55.727 53 0.6 10 -999
2007-01-31 08:48:19 51°13.687 2°55.728 48.6 0.7 15 -999
2007-01-31 08:48:24 51°13.688 2°55.728 43.9 0.9 16 -999
2007-01-31 08:48:29 51°13.689 2°55.729 39 1 15 -999
2007-01-31 08:48:34 51°13.691 2°55.729 34.3 1.2 13 -999
2007-01-31 08:48:39 51°13.693 2°55.73 29.2 1.4 12 -999
2007-01-31 08:48:44 51°13.695 2°55.731 23.6 1.6 7 -999
2007-01-31 08:48:49 51°13.697 2°55.731 17.7 1.8 2 -999
2007-01-31 08:48:54 51°13.7 2°55.73 11.6 2 356 -999
2007-01-31 08:48:59 51°13.703 2°55.73 5.5 2.1 352 -999
2007-01-31 08:49:04 51°13.706 2°55.728 359.5 2.3 347 -999
2007-01-31 08:49:09 51°13.71 2°55.727 353.6 2.5 343 -999
2007-01-31 08:49:14 51°13.713 2°55.725 349.2 2.9 339 -999
2007-01-31 08:49:19 51°13.718 2°55.722 345.2 3.4 335 12.4
2007-01-31 08:49:24 51°13.722 2°55.718 341.8 3.7 334 12.1
2007-01-31 08:49:29 51°13.727 2°55.714 339.6 4.1 332 11.7
2007-01-31 08:49:33 51°13.731 2°55.71 338.2 4.4 332 12
2007-01-31 08:49:38 51°13.737 2°55.706 337.5 4.7 332 12
2007-01-31 08:49:44 51°13.745 2°55.7 337.2 5.1 333 12
2007-01-31 08:49:49 51°13.751 2°55.694 337 5.4 333 11.8
2007-01-31 08:49:54 51°13.758 2°55.689 336.9 5.7 333 11.3
2007-01-31 08:49:58 51°13.764 2°55.684 336.9 6 334 11.5
2007-01-31 08:50:03 51°13.772 2°55.678 337.3 6.3 334 12
2007-01-31 08:50:09 51°13.782 2°55.67 337.1 6.5 334 -999
2007-01-31 08:50:14 51°13.79 2°55.664 336.7 6.8 334 -999
2007-01-31 08:50:19 51°13.799 2°55.657 336.9 7 335 -999
2007-01-31 08:50:24 51°13.808 2°55.65 337.3 7.3 335 -999
2007-01-31 08:50:29 51°13.818 2°55.643 337.8 7.5 336 -999
2007-01-31 08:50:34 51°13.827 2°55.636 338.1 7.7 335 11.8
2007-01-31 08:50:39 51°13.837 2°55.629 338.2 7.9 335 11.6
2007-01-31 08:50:43 51°13.845 2°55.623 338.2 8.1 335 11.5
2007-01-31 08:50:49 51°13.858 2°55.613 338.2 8.2 335 11.8
2007-01-31 08:50:54 51°13.868 2°55.606 338.6 8.3 336 -999
2007-01-31 08:50:59 51°13.879 2°55.599 338.8 8.5 337 4.7
2007-01-31 08:51:04 51°13.89 2°55.592 339.7 8.5 339 -999
2007-01-31 08:51:09 51°13.901 2°55.586 341.7 8.7 340 4.9
2007-01-31 08:51:14 51°13.912 2°55.578 342.4 8.7 336 12.1
2007-01-31 08:51:19 51°13.923 2°55.569 340.4 8.8 335 -999
2007-01-31 08:51:23 51°13.932 2°55.562 338.8 8.9 333 12.2
2007-01-31 08:51:29 51°13.945 2°55.551 338.1 9 332 -999
2007-01-31 08:51:33 51°13.954 2°55.543 337.9 9 332 4.8
2007-01-31 08:51:39 51°13.968 2°55.533 338.2 9 335 4.7
2007-01-31 08:51:44 51°13.979 2°55.526 338.6 9 339 4.9
2007-01-31 08:51:49 51°13.991 2°55.52 340.4 8.9 342 4.6
2007-01-31 08:51:53 51°14.001 2°55.515 342.8 9 341 12.5
2007-01-31 08:51:59 51°14.014 2°55.506 342.8 9 338 -999
2007-01-31 08:52:04 51°14.026 2°55.499 341 9.1 337 -999
2007-01-31 08:52:09 51°14.037 2°55.49 340.2 9.2 336 12.4
2007-01-31 08:52:14 51°14.049 2°55.482 339.4 9.2 335 12.3
2007-01-31 08:52:19 51°14.061 2°55.473 338.9 9.2 334 -999
2007-01-31 08:52:24 51°14.072 2°55.464 338.3 9.3 334 -999
2007-01-31 08:52:29 51°14.084 2°55.455 338 9.3 333 -999
2007-01-31 08:52:34 51°14.095 2°55.445 337.2 9.3 332 -999
2007-01-31 08:52:39 51°14.107 2°55.436 336.6 9.4 332 -999
2007-01-31 08:52:44 51°14.118 2°55.426 336.1 9.4 332 -999
2007-01-31 08:52:49 51°14.13 2°55.416 336 9.3 332 -999
2007-01-31 08:52:54 51°14.141 2°55.406 335.4 9.3 331 -999
2007-01-31 08:52:59 51°14.152 2°55.396 334.7 9.3 330 -999
2007-01-31 08:53:04 51°14.163 2°55.385 333.4 9.3 327 -999
2007-01-31 08:53:09 51°14.173 2°55.373 331.6 9.2 326 12.3
2007-01-31 08:53:14 51°14.184 2°55.361 329.4 9.3 322 12.5
2007-01-31 08:53:19 51°14.194 2°55.348 327.5 9.4 323 12.3
2007-01-31 08:53:23 51°14.202 2°55.338 326.5 9.6 321 12.5
2007-01-31 08:53:29 51°14.214 2°55.321 325.6 9.7 320 12.4
2007-01-31 08:53:34 51°14.225 2°55.307 324.1 9.8 319 12.7
2007-01-31 08:53:39 51°14.235 2°55.292 323.1 9.8 318 12.2
2007-01-31 08:53:44 51°14.245 2°55.278 322.5 9.9 317 12.1
2007-01-31 08:53:49 51°14.255 2°55.262 321.5 9.9 315 11.7
2007-01-31 08:53:54 51°14.265 2°55.246 319.8 10 315 11.4
2007-01-31 08:53:59 51°14.274 2°55.23 318.6 10.1 314 11.2
2007-01-31 08:54:04 51°14.284 2°55.214 317.9 10.1 314 11.2
2007-01-31 08:54:09 51°14.294 2°55.198 317.9 10.2 315 11.4
2007-01-31 08:54:13 51°14.302 2°55.185 318.6 10.3 316 13.1
2007-01-31 08:54:18 51°14.312 2°55.169 319 10.5 314 12.2
2007-01-31 08:54:24 51°14.325 2°55.149 318.3 10.7 314 12.3
2007-01-31 08:54:29 51°14.335 2°55.131 317.9 10.8 314 11.7
2007-01-31 08:54:34 51°14.345 2°55.113 317 10.9 313 12.2
2007-01-31 08:54:39 51°14.356 2°55.096 316.3 11 313 11.6
2007-01-31 08:54:43 51°14.364 2°55.081 315.7 11.1 313 11.3
2007-01-31 08:54:49 51°14.377 2°55.061 315.7 11.2 315 11.8
2007-01-31 08:54:54 51°14.389 2°55.043 316.3 11.2 316 11.6
2007-01-31 08:54:58 51°14.398 2°55.03 317.3 11.3 317 11.7
2007-01-31 08:55:03 51°14.409 2°55.013 318.1 11.3 315 11.7
2007-01-31 08:55:09 51°14.422 2°54.991 317.4 11.3 314 11.6
2007-01-31 08:55:14 51°14.433 2°54.973 316.1 11.3 312 11.6
2007-01-31 08:55:19 51°14.443 2°54.954 314.5 11.3 311 11.6
2007-01-31 08:55:23 51°14.451 2°54.939 313.2 11.3 311 11.6
2007-01-31 08:55:29 51°14.464 2°54.917 312.9 11.3 311 11.4
2007-01-31 08:55:34 51°14.474 2°54.897 312.7 11.3 310 11.5
2007-01-31 08:55:39 51°14.484 2°54.878 311.8 11.3 309 11.1
2007-01-31 08:55:44 51°14.493 2°54.859 311.3 11.3 309 11.1
2007-01-31 08:55:49 51°14.503 2°54.839 311.2 11.3 308 11
2007-01-31 08:55:53 51°14.511 2°54.823 310.6 11.3 307 11
2007-01-31 08:55:59 51°14.521 2°54.798 309.3 11.3 305 11.1
2007-01-31 08:56:04 51°14.53 2°54.778 307.9 11.3 304 10.9
2007-01-31 08:56:09 51°14.539 2°54.758 307.1 11.3 304 11
2007-01-31 08:56:13 51°14.546 2°54.741 306.2 11.3 305 10.9
2007-01-31 08:56:18 51°14.555 2°54.721 306.2 11.3 305 10.9
2007-01-31 08:56:24 51°14.566 2°54.696 306.2 11.3 304 10.9
2007-01-31 08:56:29 51°14.575 2°54.676 306.1 11.2 304 10.8
2007-01-31 08:56:34 51°14.583 2°54.655 305.9 11.2 303 10.9
2007-01-31 08:56:38 51°14.59 2°54.638 305.3 11.3 302 10.9
2007-01-31 08:56:44 51°14.6 2°54.613 304.6 11.2 303 10.8
2007-01-31 08:56:49 51°14.608 2°54.592 304.4 11.2 302 10.9
2007-01-31 08:56:54 51°14.616 2°54.571 304.3 11.1 302 11
2007-01-31 08:56:58 51°14.623 2°54.554 304 11.1 302 11
2007-01-31 08:57:03 51°14.631 2°54.533 303.6 11.2 303 11
2007-01-31 08:57:09 51°14.641 2°54.508 304.2 11.1 302 11
2007-01-31 08:57:14 51°14.649 2°54.487 304 11.2 302 11.1
2007-01-31 08:57:18 51°14.655 2°54.47 303.6 11.2 301 11.1
2007-01-31 08:57:23 51°14.663 2°54.449 303 11.2 300 11.1
2007-01-31 08:57:29 51°14.672 2°54.423 302.4 11.2 299 11
2007-01-31 08:57:34 51°14.68 2°54.402 302 11.1 299 11.1
2007-01-31 08:57:38 51°14.686 2°54.384 301.7 11.1 299 11.2
2007-01-31 08:57:43 51°14.693 2°54.363 301.4 11.2 299 11.2
2007-01-31 08:57:48 51°14.701 2°54.341 301.3 11.2 299 11.3
2007-01-31 08:57:53 51°14.708 2°54.32 301.6 11.1 299 11.3
2007-01-31 08:57:58 51°14.716 2°54.298 301.9 10.9 299 11.3
2007-01-31 08:58:03 51°14.723 2°54.278 302 10.8 300 11.2
2007-01-31 08:58:08 51°14.73 2°54.258 301.9 10.5 300 11.1
2007-01-31 08:58:13 51°14.737 2°54.237 301.9 10.3 298 11
2007-01-31 08:58:18 51°14.744 2°54.218 301.5 10.2 298 11.2
2007-01-31 08:58:23 51°14.75 2°54.198 300.9 10.1 298 11.3
2007-01-31 08:58:28 51°14.757 2°54.179 300.5 9.9 298 11.1
2007-01-31 08:58:33 51°14.763 2°54.159 300.1 9.8 297 11.1
2007-01-31 08:58:38 51°14.769 2°54.14 300.2 9.7 296 11
2007-01-31 08:58:43 51°14.775 2°54.121 299.8 9.6 293 11.2
2007-01-31 08:58:48 51°14.779 2°54.101 296.7 9.5 289 11
2007-01-31 08:58:53 51°14.783 2°54.081 293.3 9.4 287 11.1
2007-01-31 08:58:58 51°14.786 2°54.061 290.3 9.2 283 11.2
2007-01-31 08:59:03 51°14.787 2°54.041 286.7 9.3 278 11.1
2007-01-31 08:59:09 51°14.789 2°54.017 282.5 9.1 276 11
2007-01-31 08:59:13 51°14.79 2°54.001 280.1 9.1 272 11
2007-01-31 08:59:18 51°14.79 2°53.981 278 9.1 272 11
2007-01-31 08:59:23 51°14.79 2°53.961 275.3 9 271 11.1
2007-01-31 08:59:29 51°14.79 2°53.937 274.5 9.1 269 11
2007-01-31 08:59:33 51°14.79 2°53.921 273.4 9 268 10.9
2007-01-31 08:59:38 51°14.789 2°53.901 272.7 9.1 269 11
2007-01-31 08:59:43 51°14.788 2°53.881 272.1 9.1 268 10.9
2007-01-31 08:59:49 51°14.788 2°53.856 271.8 9.1 268 10.8
2007-01-31 08:59:53 51°14.788 2°53.84 271.9 9.1 268 11
2007-01-31 08:59:58 51°14.787 2°53.82 271.9 9.1 268 11
2007-01-31 09:00:03 51°14.787 2°53.8 272 9.1 267 11.1
2007-01-31 09:00:08 51°14.786 2°53.78 272.2 9.2 267 11.3
2007-01-31 09:00:13 51°14.786 2°53.76 271.7 9.1 268 11.1
2007-01-31 09:00:18 51°14.785 2°53.739 271.8 9.2 269 11.4
2007-01-31 09:00:23 51°14.784 2°53.719 272.1 9.2 267 11.6
2007-01-31 09:00:28 51°14.784 2°53.699 272.2 9.2 269 11.8
2007-01-31 09:00:33 51°14.784 2°53.679 272.7 9.1 270 11.9
2007-01-31 09:00:38 51°14.784 2°53.658 272.9 9 269 12.2
2007-01-31 09:00:43 51°14.784 2°53.639 273.2 9 269 12.2
2007-01-31 09:00:48 51°14.784 2°53.618 273.6 9.1 269 12
2007-01-31 09:00:53 51°14.784 2°53.598 273.1 9.1 270 12.1
2007-01-31 09:00:58 51°14.783 2°53.578 273.5 9.1 269 12.5
2007-01-31 09:01:03 51°14.784 2°53.558 273.3 9 270 12.2
2007-01-31 09:01:08 51°14.783 2°53.539 274 9.1 269 12.6
2007-01-31 09:01:13 51°14.783 2°53.519 273.4 9 269 12.5
2007-01-31 09:01:18 51°14.783 2°53.499 273.2 9 269 12.3
2007-01-31 09:01:23 51°14.782 2°53.479 273.3 9 268 12.2
2007-01-31 09:01:29 51°14.782 2°53.455 272.7 9 268 12.4
2007-01-31 09:01:33 51°14.781 2°53.439 272.8 9.1 269 12.3
2007-01-31 09:01:38 51°14.781 2°53.419 273.4 9.1 269 12.1
2007-01-31 09:01:43 51°14.781 2°53.399 273.6 9.1 270 12.1
2007-01-31 09:01:49 51°14.782 2°53.375 273.9 9.1 271 12.3
2007-01-31 09:01:53 51°14.781 2°53.358 274.2 9.2 271 12.6
2007-01-31 09:01:58 51°14.782 2°53.338 274.5 9.1 271 12.7
2007-01-31 09:02:03 51°14.781 2°53.318 274.4 9.1 269 12.3
2007-01-31 09:02:09 51°14.781 2°53.294 274.6 9.1 269 12.4
2007-01-31 09:02:13 51°14.781 2°53.278 273.6 9.1 270 12.6
2007-01-31 09:02:18 51°14.781 2°53.258 273.9 9.1 271 12.4
2007-01-31 09:02:23 51°14.781 2°53.237 274.3 9.2 270 12.4
2007-01-31 09:02:28 51°14.781 2°53.217 274.2 9.2 268 12.2
2007-01-31 09:02:33 51°14.781 2°53.197 273.7 9 267 11.8
2007-01-31 09:02:38 51°14.779 2°53.177 273.2 9 262 11.4
2007-01-31 09:02:43 51°14.777 2°53.157 270.6 9.1 261 11.2
2007-01-31 09:02:48 51°14.775 2°53.138 266.8 9 259 10.9
2007-01-31 09:02:53 51°14.773 2°53.118 265.3 9.1 260 10.8
2007-01-31 09:02:58 51°14.77 2°53.098 264.4 9.1 257 10.8
2007-01-31 09:03:03 51°14.767 2°53.079 263.1 9.1 257 10.9
2007-01-31 09:03:08 51°14.764 2°53.059 262.3 9.3 256 11.1
2007-01-31 09:03:13 51°14.761 2°53.039 261.7 9.2 255 11.1
2007-01-31 09:03:18 51°14.757 2°53.019 260.8 9.3 255 11.1
2007-01-31 09:03:23 51°14.754 2°53 260.3 9.2 255 11
2007-01-31 09:03:29 51°14.749 2°52.976 260.1 9.3 253 11.1
2007-01-31 09:03:33 51°14.747 2°52.96 259.4 9.3 255 11.1
2007-01-31 09:03:38 51°14.743 2°52.941 259.6 9.4 253 10.9
2007-01-31 09:03:43 51°14.74 2°52.921 260.1 9.2 255 10.9
2007-01-31 09:03:49 51°14.735 2°52.897 260.9 9.3 254 11
2007-01-31 09:03:53 51°14.733 2°52.882 261.1 9.2 258 10.9
2007-01-31 09:03:58 51°14.73 2°52.862 262 9.2 257 11
2007-01-31 09:04:03 51°14.728 2°52.842 262.9 9.2 260 11
2007-01-31 09:04:09 51°14.726 2°52.818 265 9.2 261 10.9
2007-01-31 09:04:13 51°14.725 2°52.802 267 9.2 263 11.1
2007-01-31 09:04:18 51°14.724 2°52.781 267.8 9.2 264 11.1
2007-01-31 09:04:23 51°14.723 2°52.761 269.3 9.2 266 11.1
2007-01-31 09:04:28 51°14.721 2°52.741 270.7 9.3 266 11.2
2007-01-31 09:04:33 51°14.721 2°52.72 271.3 9.2 266 11.1
2007-01-31 09:04:38 51°14.72 2°52.7 271.8 9.2 267 11.2
2007-01-31 09:04:43 51°14.719 2°52.68 272.1 9.3 268 11.2
2007-01-31 09:04:48 51°14.719 2°52.659 272.7 9.3 268 11.2
2007-01-31 09:04:54 51°14.718 2°52.634 273.2 9.3 268 11.2
2007-01-31 09:04:58 51°14.718 2°52.618 273 9.4 267 11.2
2007-01-31 09:05:03 51°14.717 2°52.597 272.9 9.4 268 11.2
2007-01-31 09:05:08 51°14.717 2°52.576 272.9 9.3 267 11.1
2007-01-31 09:05:13 51°14.716 2°52.556 272.6 9.4 266 11.2
2007-01-31 09:05:18 51°14.715 2°52.535 272.1 9.3 267 11
2007-01-31 09:05:23 51°14.715 2°52.515 271.8 9.3 268 11.1
2007-01-31 09:05:28 51°14.714 2°52.494 272.1 9.3 268 11.2
2007-01-31 09:05:33 51°14.714 2°52.473 272.6 9.3 268 11.1
2007-01-31 09:05:38 51°14.713 2°52.453 272.5 9.3 267 11.1
2007-01-31 09:05:43 51°14.712 2°52.432 272.7 9.4 267 11.2
2007-01-31 09:05:49 51°14.712 2°52.407 272.6 9.4 267 11.2
2007-01-31 09:05:53 51°14.711 2°52.391 272.2 9.3 268 11.2
2007-01-31 09:05:58 51°14.711 2°52.37 272.3 9.4 267 11.3
2007-01-31 09:06:03 51°14.71 2°52.35 272.4 9.3 267 11.1
2007-01-31 09:06:09 51°14.709 2°52.325 272.2 9.3 268 11.2
2007-01-31 09:06:13 51°14.709 2°52.308 272.2 9.3 268 11.3
2007-01-31 09:06:18 51°14.708 2°52.287 272.4 9.4 268 11.3
2007-01-31 09:06:23 51°14.708 2°52.267 272.9 9.3 268 11.2
2007-01-31 09:06:29 51°14.707 2°52.242 272.7 9.4 267 11.3
2007-01-31 09:06:33 51°14.707 2°52.225 272.4 9.4 266 11.3
2007-01-31 09:06:38 51°14.706 2°52.205 272.1 9.4 266 11.4
2007-01-31 09:06:43 51°14.705 2°52.184 271.7 9.3 266 11.4
2007-01-31 09:06:49 51°14.704 2°52.16 271.6 9.2 266 11.4
2007-01-31 09:06:53 51°14.703 2°52.144 271.6 9.2 266 11.4
2007-01-31 09:06:58 51°14.703 2°52.124 271.4 9.3 267 11.4
2007-01-31 09:07:03 51°14.702 2°52.103 271.6 9.2 267 11.4
2007-01-31 09:07:08 51°14.701 2°52.083 272 9.2 267 11.3
2007-01-31 09:07:13 51°14.701 2°52.063 272 9.2 268 11.4
2007-01-31 09:07:18 51°14.701 2°52.043 272.2 9.2 268 11.3
2007-01-31 09:07:23 51°14.7 2°52.022 272.8 9.1 269 11.5
2007-01-31 09:07:28 51°14.7 2°52.002 272.7 9.1 267 11.4
2007-01-31 09:07:33 51°14.699 2°51.982 272.2 9.2 268 11.6
2007-01-31 09:07:38 51°14.699 2°51.962 272.6 9.2 268 11.6
2007-01-31 09:07:43 51°14.699 2°51.942 272.5 9.1 269 11.6
2007-01-31 09:07:49 51°14.698 2°51.918 272.7 9.1 269 11.7
2007-01-31 09:07:53 51°14.698 2°51.902 272.8 9.1 267 11.8
2007-01-31 09:07:58 51°14.697 2°51.881 272.6 9.1 268 11.7
2007-01-31 09:08:03 51°14.696 2°51.861 271.7 9 266 11.5
2007-01-31 09:08:09 51°14.695 2°51.838 271.5 9.1 266 11.7
2007-01-31 09:08:13 51°14.695 2°51.822 271.5 9 267 11.6
2007-01-31 09:08:18 51°14.694 2°51.802 271.3 9 267 11.4
2007-01-31 09:08:23 51°14.693 2°51.782 272 9 267 11.6
2007-01-31 09:08:28 51°14.693 2°51.762 272.2 9 267 11.6
2007-01-31 09:08:33 51°14.692 2°51.742 272 9 267 11.7
2007-01-31 09:08:38 51°14.692 2°51.722 272.1 9 267 11.8
2007-01-31 09:08:43 51°14.691 2°51.703 272.2 8.8 268 11.8
2007-01-31 09:08:49 51°14.69 2°51.679 272.9 8.8 266 12
2007-01-31 09:08:53 51°14.69 2°51.664 271.7 8.8 267 11.8
2007-01-31 09:08:58 51°14.689 2°51.644 271.2 8.9 268 11.9
2007-01-31 09:09:03 51°14.689 2°51.625 271.9 8.9 269 12
2007-01-31 09:09:08 51°14.688 2°51.605 272.3 8.9 268 11.9
2007-01-31 09:09:14 51°14.688 2°51.581 272.4 8.9 268 12.1
2007-01-31 09:09:18 51°14.688 2°51.565 272.5 9 268 12.2
2007-01-31 09:09:23 51°14.687 2°51.545 272.6 9 268 12
2007-01-31 09:09:28 51°14.686 2°51.525 272.4 9.1 268 12.1
2007-01-31 09:09:33 51°14.686 2°51.505 272.2 9 268 12
2007-01-31 09:09:38 51°14.686 2°51.486 272.2 8.6 268 12
2007-01-31 09:09:43 51°14.685 2°51.468 272.2 8 268 12.1
2007-01-31 09:09:48 51°14.685 2°51.451 272.1 7.4 269 12.1
2007-01-31 09:09:53 51°14.685 2°51.435 272.1 7 268 12.1
2007-01-31 09:09:58 51°14.684 2°51.421 271.7 6.5 266 12.1
2007-01-31 09:10:03 51°14.684 2°51.407 271.1 5.9 265 12.1
2007-01-31 09:10:09 51°14.682 2°51.393 270.4 5.6 262 12.3
2007-01-31 09:10:13 51°14.681 2°51.384 268.3 5.1 258 11.9
2007-01-31 09:10:18 51°14.68 2°51.373 265.9 4.8 261 12
2007-01-31 09:10:23 51°14.678 2°51.364 264.8 4.2 256 12.1
2007-01-31 09:10:28 51°14.677 2°51.356 263.4 3.7 258 12.3
2007-01-31 09:10:33 51°14.675 2°51.349 261.6 3.2 249 12.2
2007-01-31 09:10:38 51°14.674 2°51.343 258.7 2.8 250 12.3
2007-01-31 09:10:43 51°14.672 2°51.339 255.3 2.4 240 12.3
2007-01-31 09:10:49 51°14.67 2°51.334 251.1 2 238 12.4
2007-01-31 09:10:53 51°14.669 2°51.333 246.5 1.6 216 12.1
2007-01-31 09:10:58 51°14.667 2°51.332 240.5 1 201 12
2007-01-31 09:11:03 51°14.666 2°51.332 234.5 0.9 175 12
2007-01-31 09:11:09 51°14.665 2°51.333 229.2 0.7 138 12.1
2007-01-31 09:11:13 51°14.665 2°51.334 223.3 0.8 111 12.1
2007-01-31 09:11:18 51°14.665 2°51.336 218.3 1 98 12
2007-01-31 09:11:23 51°14.665 2°51.338 213 1 95 12.1
2007-01-31 09:11:28 51°14.664 2°51.341 209.4 1 92 12.2
2007-01-31 09:11:33 51°14.664 2°51.343 205.6 1.1 91 12.2
2007-01-31 09:11:38 51°14.664 2°51.345 201.3 1.1 90 12.4
2007-01-31 09:11:43 51°14.664 2°51.348 197.6 1.2 90 12.5
2007-01-31 09:11:48 51°14.664 2°51.35 193.4 1.4 87 12.5
2007-01-31 09:11:53 51°14.664 2°51.353 189.9 1.2 89 12.5
2007-01-31 09:11:58 51°14.664 2°51.355 186.9 1.1 89 12.4
2007-01-31 09:12:03 51°14.664 2°51.357 184.3 1 97 12.3
2007-01-31 09:12:09 51°14.664 2°51.36 181.4 1.2 94 12.4
2007-01-31 09:12:13 51°14.664 2°51.362 179 1 99 12.1
2007-01-31 09:12:18 51°14.663 2°51.365 176.9 1.2 92 12.2
2007-01-31 09:12:23 51°14.663 2°51.367 174.7 1.1 100 12.3
2007-01-31 09:12:28 51°14.663 2°51.37 172.7 1.1 104 12.4
2007-01-31 09:12:33 51°14.663 2°51.372 171 1.1 103 12.4
2007-01-31 09:12:38 51°14.662 2°51.375 169.9 1.1 100 12.4
2007-01-31 09:12:43 51°14.662 2°51.377 168.9 1.1 102 12.4
2007-01-31 09:12:48 51°14.662 2°51.38 167.6 1.1 99 12.3
2007-01-31 09:12:53 51°14.661 2°51.383 167.1 1.2 95 12.4
2007-01-31 09:12:58 51°14.661 2°51.385 166.4 1.2 101 12.4
2007-01-31 09:13:03 51°14.661 2°51.388 165.7 1.3 97 12.4
2007-01-31 09:13:09 51°14.661 2°51.391 165.2 1.2 100 12.2
2007-01-31 09:13:13 51°14.66 2°51.393 165.1 1.3 97 12.4
2007-01-31 09:13:18 51°14.66 2°51.396 164.7 1.3 103 12.3
2007-01-31 09:13:23 51°14.66 2°51.399 164.6 1.2 107 12.2
2007-01-31 09:13:29 51°14.659 2°51.402 164.8 1.3 97 12.3
2007-01-31 09:13:33 51°14.659 2°51.404 164.9 1.3 102 12.3
2007-01-31 09:13:38 51°14.658 2°51.406 165.3 1.2 108 12.3
2007-01-31 09:13:43 51°14.658 2°51.409 165.9 1.3 109 12.2
2007-01-31 09:13:48 51°14.657 2°51.411 166.5 1.2 112 12.1
2007-01-31 09:13:53 51°14.656 2°51.414 167.1 1.3 111 12.2
2007-01-31 09:13:58 51°14.656 2°51.417 168.3 1.1 117 12.1
2007-01-31 09:14:03 51°14.655 2°51.419 169.6 1.3 110 12.2
2007-01-31 09:14:08 51°14.654 2°51.422 170.5 1.2 114 12.2
2007-01-31 09:14:13 51°14.654 2°51.424 171.4 1.3 113 12.3
2007-01-31 09:14:18 51°14.653 2°51.426 172.5 1.2 116 12.3
2007-01-31 09:14:23 51°14.652 2°51.428 173.2 1.2 112 12.2
2007-01-31 09:14:28 51°14.652 2°51.431 174.7 1.3 111 12.2
2007-01-31 09:14:33 51°14.651 2°51.434 175.3 1.2 118 12.2
2007-01-31 09:14:38 51°14.65 2°51.436 175.8 1.2 117 12
2007-01-31 09:14:43 51°14.65 2°51.439 176.8 1.2 118 12
2007-01-31 09:14:48 51°14.649 2°51.441 177.6 1.2 117 12
2007-01-31 09:14:53 51°14.648 2°51.443 178.7 1.2 119 12
2007-01-31 09:14:58 51°14.647 2°51.446 179.2 1.1 122 12
2007-01-31 09:15:03 51°14.647 2°51.448 179.9 1.1 119 12
2007-01-31 09:15:09 51°14.646 2°51.451 180.9 1.1 116 12.1
2007-01-31 09:15:13 51°14.646 2°51.452 182.1 1.1 117 12.1
2007-01-31 09:15:18 51°14.645 2°51.455 183.2 1.1 111 12.1
2007-01-31 09:15:23 51°14.644 2°51.457 184 1.1 108 12.1
2007-01-31 09:15:29 51°14.643 2°51.46 184.4 1.2 116 12
2007-01-31 09:15:33 51°14.643 2°51.461 184.6 1.1 116 11.9
2007-01-31 09:15:38 51°14.642 2°51.464 185 1.1 116 12
2007-01-31 09:15:43 51°14.642 2°51.466 185.7 1.1 115 12
2007-01-31 09:15:48 51°14.641 2°51.469 186 1.2 110 12
2007-01-31 09:15:53 51°14.64 2°51.471 186.2 1.1 112 12.2
2007-01-31 09:15:58 51°14.64 2°51.473 186.2 1.1 111 12.1
2007-01-31 09:16:03 51°14.639 2°51.476 186.1 1.2 110 12.1
2007-01-31 09:16:08 51°14.639 2°51.478 185.8 1.1 109 12.2
2007-01-31 09:16:13 51°14.638 2°51.481 185.8 1.2 106 12.2
2007-01-31 09:16:18 51°14.638 2°51.483 185.7 1.1 111 12.1
2007-01-31 09:16:23 51°14.637 2°51.485 185.3 1.1 110 12.1
2007-01-31 09:16:28 51°14.637 2°51.488 185 1.2 111 12.1
2007-01-31 09:16:33 51°14.636 2°51.491 184.8 1.1 113 12.1
2007-01-31 09:16:38 51°14.636 2°51.493 185.5 1.1 108 12
2007-01-31 09:16:43 51°14.635 2°51.496 186 1.1 108 12
2007-01-31 09:16:48 51°14.635 2°51.498 186.4 1.2 107 12
2007-01-31 09:16:53 51°14.635 2°51.501 186.8 1.2 115 12
2007-01-31 09:16:58 51°14.634 2°51.504 187.3 1.3 107 11.9
2007-01-31 09:17:03 51°14.633 2°51.506 187.9 1.3 107 11.9
2007-01-31 09:17:08 51°14.633 2°51.509 188.6 1.1 107 11.9
2007-01-31 09:17:13 51°14.632 2°51.511 189.1 1.2 104 12
2007-01-31 09:17:18 51°14.632 2°51.514 189.5 1.1 105 12.1
2007-01-31 09:17:23 51°14.632 2°51.516 189.8 1.2 103 12.1
2007-01-31 09:17:29 51°14.631 2°51.519 189.8 1.2 104 12.1
2007-01-31 09:17:33 51°14.631 2°51.522 189.4 1.3 98 12.2
2007-01-31 09:17:38 51°14.631 2°51.525 189.4 1.2 101 12.2
2007-01-31 09:17:43 51°14.63 2°51.527 189.2 1.2 102 12.2
2007-01-31 09:17:49 51°14.63 2°51.531 188.9 1.4 99 12.2
2007-01-31 09:17:53 51°14.63 2°51.533 188.3 1.3 97 12.2
2007-01-31 09:17:58 51°14.63 2°51.536 188.4 1.2 97 12.1
2007-01-31 09:18:03 51°14.629 2°51.539 188.6 1.3 100 12.1
2007-01-31 09:18:08 51°14.629 2°51.541 188.6 1.2 96 12.1